createdAt,value
2022-10-06T00:03:17.992Z,100451.31
2022-10-06T00:07:19.661Z,100461.31
2022-10-06T00:11:21.261Z,100449.06
2022-10-06T00:15:33.835Z,100459.88
2022-10-06T00:19:35.397Z,100448.22
2022-10-06T00:23:37.208Z,100447.34
2022-10-06T00:27:41.437Z,100462.59
2022-10-06T00:31:43.766Z,100453.06
2022-10-06T00:35:45.636Z,100451.94
2022-10-06T00:39:47.168Z,100460.00
2022-10-06T00:43:50.885Z,100469.16
2022-10-06T00:47:54.340Z,100477.78
2022-10-06T00:52:06.650Z,100486.09
2022-10-06T00:56:09.009Z,100489.13
2022-10-06T01:00:11.264Z,100496.34
2022-10-06T01:04:17.801Z,100502.16
2022-10-06T01:08:22.497Z,100506.63
2022-10-06T01:12:25.989Z,100505.78
2022-10-06T01:16:29.255Z,100511.91
2022-10-06T01:20:31.186Z,100513.06
2022-10-06T01:24:33.077Z,100520.94
2022-10-06T01:28:35.083Z,100519.63
2022-10-06T01:32:39.486Z,100523.28
2022-10-06T01:36:41.852Z,100530.03
2022-10-06T01:40:45.024Z,100532.31
2022-10-06T01:44:46.801Z,100529.59
2022-10-06T01:48:48.537Z,100538.81
2022-10-06T01:52:51.676Z,100529.38
2022-10-06T01:56:53.339Z,100540.25
2022-10-06T02:00:56.135Z,100541.41
2022-10-06T02:04:57.716Z,100548.91
2022-10-06T02:09:00.812Z,100558.66
2022-10-06T02:13:02.973Z,100563.16
2022-10-06T02:17:04.839Z,100564.59
2022-10-06T02:21:14.014Z,100573.50
2022-10-06T02:25:17.235Z,100589.34
2022-10-06T02:29:20.476Z,100593.53
2022-10-06T02:33:22.632Z,100606.31
2022-10-06T02:37:24.325Z,100615.47
2022-10-06T02:41:25.981Z,100617.13
2022-10-06T02:45:28.819Z,100633.00
2022-10-06T02:49:31.973Z,100643.59
2022-10-06T02:53:35.162Z,100646.38
2022-10-06T02:57:37.099Z,100646.63
2022-10-06T03:01:39.116Z,100654.72
2022-10-06T03:05:48.121Z,100651.91
2022-10-06T03:09:49.760Z,100669.16
2022-10-06T03:13:52.090Z,100676.34
2022-10-06T03:17:53.902Z,100686.34
2022-10-06T03:21:55.688Z,100697.75
2022-10-06T03:26:05.078Z,100692.41
2022-10-06T03:30:07.630Z,100706.84
2022-10-06T03:34:11.333Z,100707.63
2022-10-06T03:38:13.738Z,100714.56
2022-10-06T03:42:15.556Z,100731.19
2022-10-06T03:46:19.974Z,100742.28
2022-10-06T03:50:21.843Z,100758.34
2022-10-06T03:54:23.559Z,100766.97
2022-10-06T03:58:29.223Z,100771.69
2022-10-06T04:02:31.155Z,100767.47
2022-10-06T04:06:36.416Z,100780.81
2022-10-06T04:10:39.287Z,100779.31
2022-10-06T04:14:41.022Z,100778.47
2022-10-06T04:18:46.542Z,100799.66
2022-10-06T04:22:48.085Z,100797.38
2022-10-06T04:26:50.173Z,100806.50
2022-10-06T04:31:00.814Z,100812.25
2022-10-06T04:35:02.976Z,100826.94
2022-10-06T04:39:06.133Z,100831.06
2022-10-06T04:43:09.014Z,100840.50
2022-10-06T04:47:10.759Z,100845.47
2022-10-06T04:51:15.666Z,100849.03
2022-10-06T04:55:17.913Z,100840.91
2022-10-06T04:59:19.522Z,100849.03
2022-10-06T05:03:22.872Z,100845.44
2022-10-06T05:07:25.465Z,100860.88
2022-10-06T05:11:29.813Z,100857.78
2022-10-06T05:15:32.221Z,100868.31
2022-10-06T05:19:34.156Z,100883.06
2022-10-06T05:23:40.381Z,100876.91
2022-10-06T05:27:42.060Z,100887.94
2022-10-06T05:31:44.988Z,100911.19
2022-10-06T05:35:56.884Z,100913.84
2022-10-06T05:39:58.775Z,100920.91
2022-10-06T05:44:00.555Z,100932.03
2022-10-06T05:48:09.053Z,100931.16
2022-10-06T05:52:10.972Z,100946.41
2022-10-06T05:56:18.050Z,100958.50
2022-10-06T06:00:19.896Z,100960.78
2022-10-06T06:04:21.896Z,100966.59
2022-10-06T06:08:27.512Z,100970.50
2022-10-06T06:12:29.733Z,100974.47
2022-10-06T06:16:51.812Z,100987.78
2022-10-06T06:21:04.696Z,100998.56
2022-10-06T06:25:07.137Z,101005.03
2022-10-06T06:29:09.205Z,101018.00
2022-10-06T06:33:16.754Z,101030.28
2022-10-06T06:37:18.515Z,101031.72
2022-10-06T06:41:23.763Z,101045.72
2022-10-06T06:45:30.560Z,101045.19
2022-10-06T06:49:52.549Z,101056.53
2022-10-06T06:53:54.189Z,101073.63
2022-10-06T06:57:55.817Z,101078.47
2022-10-06T07:01:57.742Z,101085.59
2022-10-06T07:06:11.758Z,101092.00
2022-10-06T07:10:14.417Z,101088.56
2022-10-06T07:14:16.148Z,101094.50
2022-10-06T07:18:40.625Z,101105.66
2022-10-06T07:23:00.954Z,101105.66
2022-10-06T07:27:02.733Z,101115.78
2022-10-06T07:31:04.643Z,101120.00
2022-10-06T07:35:07.893Z,101120.13
2022-10-06T07:39:11.010Z,101125.19
2022-10-06T07:43:13.429Z,101133.44
2022-10-06T07:47:18.413Z,101136.84
2022-10-06T07:51:31.172Z,101142.25
2022-10-06T07:55:34.149Z,101150.31
2022-10-06T07:59:50.690Z,101151.06
2022-10-06T08:03:52.482Z,101159.88
2022-10-06T08:07:55.048Z,101165.34
2022-10-06T08:11:56.628Z,101174.41
2022-10-06T08:16:05.415Z,101170.28
2022-10-06T08:20:10.446Z,101179.13
2022-10-06T08:24:12.541Z,101179.44
2022-10-06T08:28:15.174Z,101186.75
2022-10-06T08:32:18.413Z,101200.63
2022-10-06T08:36:20.222Z,101186.16
2022-10-06T08:40:22.129Z,101196.34
2022-10-06T08:44:40.669Z,101206.63
2022-10-06T08:48:42.452Z,101202.06
2022-10-06T08:53:22.489Z,101207.84
2022-10-06T08:57:38.469Z,101218.59
2022-10-06T09:01:49.363Z,101221.50
2022-10-06T09:05:53.834Z,101216.47
2022-10-06T09:10:31.746Z,101222.94
2022-10-06T09:14:49.185Z,101229.47
2022-10-06T09:19:08.286Z,101236.34
2022-10-06T09:23:17.566Z,101237.00
2022-10-06T09:27:24.017Z,101233.69
2022-10-06T09:31:40.449Z,101239.38
2022-10-06T09:36:06.320Z,101243.28
2022-10-06T09:40:34.380Z,101254.84
2022-10-06T09:44:57.380Z,101244.16
2022-10-06T09:49:17.624Z,101245.56
2022-10-06T09:53:19.259Z,101242.91
2022-10-06T09:57:26.744Z,101242.50
2022-10-06T10:01:30.820Z,101241.22
2022-10-06T10:05:34.884Z,101244.34
2022-10-06T10:09:36.497Z,101238.44
2022-10-06T10:13:44.233Z,101245.25
2022-10-06T10:18:03.594Z,101245.84
2022-10-06T10:22:22.762Z,101239.38
2022-10-06T10:26:26.455Z,101236.31
2022-10-06T10:30:28.626Z,101237.16
2022-10-06T10:35:05.432Z,101244.13
2022-10-06T10:39:14.363Z,101247.84
2022-10-06T10:43:40.994Z,101252.44
2022-10-06T10:47:45.093Z,101258.59
2022-10-06T10:52:12.031Z,101245.69
2022-10-06T10:56:16.446Z,101249.78
2022-10-06T11:00:41.461Z,101261.84
2022-10-06T11:04:49.647Z,101256.53
2022-10-06T11:09:05.887Z,101259.88
2022-10-06T11:13:28.277Z,101251.38
2022-10-06T11:17:44.244Z,101264.31
2022-10-06T11:22:21.231Z,101254.25
2022-10-06T11:26:49.232Z,101252.69
2022-10-06T11:31:11.345Z,101247.22
2022-10-06T11:35:38.599Z,101254.81
2022-10-06T11:39:43.088Z,101243.03
2022-10-06T11:43:53.829Z,101229.00
2022-10-06T11:48:07.519Z,101222.69
2022-10-06T11:52:09.179Z,101228.63
2022-10-06T11:56:16.719Z,101224.50
2022-10-06T12:00:18.237Z,101218.19
2022-10-06T12:04:24.507Z,101224.25
2022-10-06T12:08:38.100Z,101218.53
2022-10-06T12:12:41.990Z,101222.72
2022-10-06T12:21:18.488Z,101199.16
2022-10-06T12:25:39.869Z,101202.44
2022-10-06T12:29:52.421Z,101201.13
2022-10-06T12:33:53.957Z,101198.00
2022-10-06T12:37:58.587Z,101196.38
2022-10-06T12:42:01.441Z,101198.47
2022-10-06T12:46:08.210Z,101185.97
2022-10-06T12:50:20.728Z,101187.97
2022-10-06T12:54:33.492Z,101181.69
2022-10-06T12:58:35.209Z,101179.13
2022-10-06T13:02:44.129Z,101180.97
2022-10-06T13:06:49.933Z,101174.88
2022-10-06T13:10:52.027Z,101179.38
2022-10-06T13:15:17.229Z,101169.66
2022-10-06T13:19:27.616Z,101177.25
2022-10-06T13:23:31.613Z,101170.72
2022-10-06T13:27:34.921Z,101169.94
2022-10-06T13:31:37.958Z,101171.91
2022-10-06T13:35:39.632Z,101166.59
2022-10-06T13:39:41.406Z,101163.84
2022-10-06T13:44:18.961Z,101163.00
2022-10-06T13:48:21.797Z,101162.94
2022-10-06T13:52:39.169Z,101160.63
2022-10-06T13:56:40.836Z,101165.88
2022-10-06T14:00:47.113Z,101159.16
2022-10-06T14:05:27.580Z,101151.91
2022-10-06T14:09:33.819Z,101158.03
2022-10-06T14:13:52.642Z,101153.22
2022-10-06T14:18:00.314Z,101157.66
2022-10-06T14:22:03.706Z,101154.50
2022-10-06T14:26:06.180Z,101156.19
2022-10-06T14:30:08.615Z,101150.19
2022-10-06T14:34:16.575Z,101139.34
2022-10-06T14:38:18.785Z,101141.28
2022-10-06T14:42:24.417Z,101141.03
2022-10-06T14:46:26.328Z,101136.63
2022-10-06T14:50:30.825Z,101139.78
2022-10-06T14:54:34.482Z,101143.16
2022-10-06T14:58:44.036Z,101128.59
2022-10-06T15:02:45.757Z,101137.00
2022-10-06T15:07:06.056Z,101132.78
2022-10-06T15:11:07.643Z,101131.66
2022-10-06T15:15:09.712Z,101128.81
2022-10-06T15:19:12.726Z,101121.81
2022-10-06T15:23:14.370Z,101122.31
2022-10-06T15:27:34.667Z,101116.44
2022-10-06T15:31:39.589Z,101111.03
2022-10-06T15:35:44.012Z,101110.09
2022-10-06T15:39:46.726Z,101123.38
2022-10-06T15:43:55.195Z,101113.53
2022-10-06T15:47:58.597Z,101118.75
2022-10-06T15:52:03.290Z,101120.34
2022-10-06T15:56:05.517Z,101108.50
2022-10-06T16:00:09.099Z,101111.16
2022-10-06T16:04:35.264Z,101107.44
2022-10-06T16:08:36.801Z,101102.56
2022-10-06T16:12:38.509Z,101109.16
2022-10-06T16:16:43.693Z,101115.13
2022-10-06T16:20:45.650Z,101116.06
2022-10-06T16:24:47.296Z,101107.72
2022-10-06T16:28:50.000Z,101115.81
2022-10-06T16:32:51.590Z,101119.41
2022-10-06T16:36:53.247Z,101121.31
2022-10-06T16:41:01.810Z,101105.94
2022-10-06T16:45:03.491Z,101117.56
2022-10-06T16:49:05.855Z,101117.41
2022-10-06T16:53:07.522Z,101113.44
2022-10-06T16:57:09.113Z,101117.53
2022-10-06T17:01:12.508Z,101116.63
2022-10-06T17:05:14.285Z,101120.91
2022-10-06T17:09:18.521Z,101114.94
2022-10-06T17:13:20.157Z,101122.06
2022-10-06T17:17:21.774Z,101128.31
2022-10-06T17:21:45.100Z,101124.97
2022-10-06T17:25:45.950Z,101131.81
2022-10-06T17:29:49.270Z,101130.97
2022-10-06T17:33:51.370Z,101138.19
2022-10-06T17:37:54.227Z,101128.38
2022-10-06T17:41:56.156Z,101121.75
2022-10-06T17:45:57.886Z,101146.66
2022-10-06T17:50:00.535Z,101145.25
2022-10-06T17:54:04.862Z,101144.28
2022-10-06T17:58:08.527Z,101146.25
2022-10-06T18:02:13.274Z,101138.31
2022-10-06T18:06:17.158Z,101135.88
2022-10-06T18:10:38.683Z,101134.50
2022-10-06T18:14:40.387Z,101145.03
2022-10-06T18:18:53.009Z,101140.19
2022-10-06T18:22:58.949Z,101137.50
2022-10-06T18:27:01.553Z,101144.34
2022-10-06T18:31:03.118Z,101135.03
2022-10-06T18:39:31.152Z,101130.31
2022-10-06T18:43:33.049Z,101136.06
2022-10-06T18:47:53.598Z,101130.34
2022-10-06T18:51:58.288Z,101129.75
2022-10-06T18:56:00.322Z,101122.97
2022-10-06T19:00:02.247Z,101124.28
2022-10-06T19:04:05.491Z,101120.50
2022-10-06T19:08:08.857Z,101128.22
2022-10-06T19:12:10.405Z,101131.44
2022-10-06T19:16:14.396Z,101131.66
2022-10-06T19:20:16.233Z,101128.50
2022-10-06T19:24:20.685Z,101133.41
2022-10-06T19:28:22.322Z,101138.09
2022-10-06T19:32:28.132Z,101135.78
2022-10-06T19:36:30.082Z,101141.53
2022-10-06T19:40:31.661Z,101139.69
2022-10-06T19:44:33.646Z,101137.38
2022-10-06T19:48:36.320Z,101138.91
2022-10-06T19:52:38.079Z,101137.88
2022-10-06T19:56:41.389Z,101137.50
2022-10-06T20:00:43.745Z,101142.59
2022-10-06T20:04:45.518Z,101143.88
2022-10-06T20:08:47.373Z,101140.50
2022-10-06T20:12:48.901Z,101148.78
2022-10-06T20:16:55.694Z,101143.72
2022-10-06T20:20:58.730Z,101147.31
2022-10-06T20:25:01.963Z,101140.34
2022-10-06T20:29:06.996Z,101134.19
2022-10-06T20:33:09.501Z,101142.69
2022-10-06T20:37:11.219Z,101138.88
2022-10-06T20:41:16.345Z,101142.47
2022-10-06T20:45:17.982Z,101138.03
2022-10-06T20:49:19.585Z,101128.28
2022-10-06T20:53:21.200Z,101137.41
2022-10-06T20:57:22.814Z,101132.34
2022-10-06T21:01:24.753Z,101134.84
2022-10-06T21:05:26.481Z,101130.03
2022-10-06T21:09:31.279Z,101126.63
2022-10-06T21:13:33.200Z,101117.50
2022-10-06T21:17:35.003Z,101112.19
2022-10-06T21:21:37.781Z,101110.53
2022-10-06T21:25:41.123Z,101111.81
2022-10-06T21:29:42.828Z,101107.13
2022-10-06T21:33:46.364Z,101106.13
2022-10-06T21:37:48.116Z,101109.38
2022-10-06T21:41:49.828Z,101102.03
2022-10-06T21:46:10.734Z,101106.34
2022-10-06T21:50:13.583Z,101103.69
2022-10-06T21:54:15.904Z,101100.53
2022-10-06T21:58:17.588Z,101093.41
2022-10-06T22:02:19.446Z,101103.00
2022-10-06T22:06:22.321Z,101105.16
2022-10-06T22:10:24.060Z,101095.44
2022-10-06T22:14:25.955Z,101089.09
2022-10-06T22:18:29.236Z,101093.78
2022-10-06T22:22:30.947Z,101091.06
2022-10-06T22:26:34.503Z,101094.22
2022-10-06T22:30:36.190Z,101089.56
2022-10-06T22:34:41.636Z,101084.50
2022-10-06T22:38:43.332Z,101086.41
2022-10-06T22:42:45.041Z,101083.06
2022-10-06T22:46:48.016Z,101078.38
2022-10-06T22:50:51.608Z,101069.28
2022-10-06T22:54:53.320Z,101063.97
2022-10-06T22:58:57.130Z,101055.31
2022-10-06T23:02:59.011Z,101054.91
2022-10-06T23:07:00.958Z,101059.53
2022-10-06T23:11:08.773Z,101049.81
2022-10-06T23:15:13.829Z,101060.59
2022-10-06T23:19:15.516Z,101053.19
2022-10-06T23:23:17.660Z,101041.13
2022-10-06T23:27:19.554Z,101041.13
2022-10-06T23:31:21.614Z,101041.56
2022-10-06T23:35:23.457Z,101040.09
2022-10-06T23:39:25.188Z,101034.78
2022-10-06T23:43:27.096Z,101040.50
2022-10-06T23:47:28.781Z,101027.78
2022-10-06T23:51:30.598Z,101035.22
2022-10-06T23:55:32.435Z,101020.19
2022-10-06T23:59:34.141Z,101018.28
